CheckWX is a tool to help pilots better visualize weather data.  It is not intended as a substitute for an official pre-flight weather briefing.

06:10:32 UTC

CYMX METAR
Montreal International (Mirabel) Airport
Montréal, Canada
Current

11 mins ago

CYMX 230600Z 04005KT 340V090 25SM SCT150 09/M06 A3011 RMK AC4 SLP201
Observed
Apr-23 @ 06:00 UTC
Wind
  • 040° at 5 KTS
Visibility
25 SM
Flight Rules
VFR
Cloud Levels
  • Scattered at 15,000' AGL
Temperature
C / 48°F
Dewpoint
-6°C / 21°F
Humidity
34%
Altimeter
30.11" Hg
Pressure
1019.62 hPa
Previous

1 hour ago

CYMX 230500Z 03005KT 330V080 25SM FEW140 09/M05 A3014 RMK AC1 SLP210
Observed
Apr-23 @ 05:00 UTC
Wind
  • 030° at 5 KTS
Visibility
25 SM
Flight Rules
VFR
Cloud Levels
  • Few at 14,000' AGL
Temperature
C / 48°F
Dewpoint
-5°C / 23°F
Humidity
37%
Altimeter
30.14" Hg
Pressure
1020.62 hPa
Previous

2 hours ago

CYMX 230400Z 05004KT 360V090 25SM BKN150 10/M04 A3016 RMK AC6 SLP216
Observed
Apr-23 @ 04:00 UTC
Wind
  • 050° at 4 KTS
Visibility
25 SM
Flight Rules
VFR
Cloud Levels
  • Broken at 15,000' AGL
Temperature
10°C / 50°F
Dewpoint
-4°C / 25°F
Humidity
37%
Altimeter
30.16" Hg
Pressure
1021.32 hPa